Time;durP1;ratioP1;P1;durP2;ratioP2;P2;SDS_P1;SDS_P2;PMS_P1;PMS_P2;Temp;Humidity;BMP_temperature;BMP_pressure;BME280_temperature;BME280_humidity;BME280_pressure;Samples;Min_cycle;Max_cycle;Signal;HPM_P1;HPM_P2
2022/06/06 00:00:47;;;;;;;6.20;3.53;;;;;;;22.61;55.68;100731.16;5053487;28;20485;-73
2022/06/06 00:03:15;;;;;;;5.70;3.27;;;;;;;22.52;56.29;100714.91;5053347;28;20521;-73
2022/06/06 00:05:43;;;;;;;3.53;3.20;;;;;;;22.54;55.31;100714.53;5053565;28;20438;-73
2022/06/06 00:08:11;;;;;;;3.30;3.00;;;;;;;22.58;55.76;100709.84;5053465;28;20442;-73
2022/06/06 00:10:38;;;;;;;3.50;3.07;;;;;;;22.56;56.29;100712.19;5053405;28;20466;-73
2022/06/06 00:13:05;;;;;;;3.70;3.40;;;;;;;22.52;56.00;100709.38;5053109;28;20485;-73
2022/06/06 00:15:33;;;;;;;5.30;4.07;;;;;;;22.51;56.14;100709.78;5053396;28;20541;-73
2022/06/06 00:18:01;;;;;;;5.40;3.30;;;;;;;22.51;55.98;100713.31;5053076;28;20951;-73
2022/06/06 00:20:27;;;;;;;4.80;3.27;;;;;;;22.51;56.59;100707.00;5053480;28;20533;-73
2022/06/06 00:22:54;;;;;;;3.83;3.17;;;;;;;22.50;56.32;100719.22;5052960;28;20470;-73
2022/06/06 00:25:21;;;;;;;4.27;3.87;;;;;;;22.48;56.21;100707.75;5053258;28;20441;-73
2022/06/06 00:27:47;;;;;;;4.60;3.40;;;;;;;22.45;55.63;100708.53;5053200;28;20521;-73
2022/06/06 00:30:14;;;;;;;3.30;3.00;;;;;;;22.48;55.65;100710.53;5053217;28;20524;-73
2022/06/06 00:35:26;;;;;;;6.37;4.37;;;;;;;22.50;56.25;100708.97;5053006;28;20900;-73
2022/06/06 00:37:53;;;;;;;6.33;3.80;;;;;;;22.48;56.86;100710.53;5052815;28;20944;-73
2022/06/06 00:40:23;;;;;;;4.17;3.10;;;;;;;22.49;56.47;100712.09;5053244;28;20438;-73
2022/06/06 00:42:50;;;;;;;3.83;3.00;;;;;;;22.45;57.16;100716.81;5053075;28;20523;-73
2022/06/06 00:45:26;;;;;;;5.47;3.70;;;;;;;22.45;56.58;100719.56;5052952;28;20446;-73
2022/06/06 00:47:58;;;;;;;6.87;3.73;;;;;;;22.46;56.47;100723.91;5053093;28;20509;-74
2022/06/06 00:50:33;;;;;;;5.00;3.67;;;;;;;22.49;55.87;100720.38;5056250;28;20423;-73
2022/06/06 00:53:01;;;;;;;4.47;3.60;;;;;;;22.51;56.57;100720.81;5056829;28;20476;-73
2022/06/06 00:55:32;;;;;;;4.97;3.73;;;;;;;22.48;57.51;100716.03;5057107;28;20476;-73
2022/06/06 00:58:05;;;;;;;4.17;3.20;;;;;;;22.46;57.05;100716.44;5057123;28;20430;-73
2022/06/06 01:00:32;;;;;;;4.17;3.43;;;;;;;22.44;57.18;100724.28;5056771;28;20427;-72
2022/06/06 01:03:04;;;;;;;5.47;3.63;;;;;;;22.45;56.47;100716.81;5057006;28;20457;-73
2022/06/06 01:05:33;;;;;;;4.83;3.60;;;;;;;22.49;55.98;100723.13;5057002;28;20473;-73
2022/06/06 01:07:59;;;;;;;4.27;3.07;;;;;;;22.49;56.73;100723.97;5056607;28;20955;-73
2022/06/06 01:10:26;;;;;;;5.10;3.80;;;;;;;22.37;61.96;100726.97;5056403;28;20541;-73
2022/06/06 01:12:56;;;;;;;3.77;3.17;;;;;;;22.22;65.49;100714.97;5056446;28;20572;-73
2022/06/06 01:15:26;;;;;;;4.10;3.60;;;;;;;22.13;62.34;100706.19;5056778;28;20444;-73
2022/06/06 01:17:58;;;;;;;4.23;3.30;;;;;;;22.05;65.84;100710.03;5056742;28;20473;-73
2022/06/06 01:20:46;;;;;;;5.07;4.23;;;;;;;21.88;66.32;100694.84;5056545;28;20422;-73
2022/06/06 01:23:43;;;;;;;6.40;4.20;;;;;;;21.83;65.91;100706.22;5056316;28;20458;-73
2022/06/06 01:26:42;;;;;;;6.00;3.87;;;;;;;21.84;65.17;100716.84;5053687;28;20533;-73
2022/06/06 01:29:14;;;;;;;4.20;3.63;;;;;;;21.91;62.85;100719.72;5056546;28;20509;-72
2022/06/06 01:31:48;;;;;;;5.83;4.40;;;;;;;21.95;62.96;100722.50;5056033;28;20489;-73
2022/06/06 01:34:22;;;;;;;7.17;4.03;;;;;;;22.02;62.86;100732.84;5056488;28;20549;-73
2022/06/06 01:36:50;;;;;;;5.67;3.77;;;;;;;21.96;65.26;100740.66;5056407;28;20428;-73
2022/06/06 01:39:17;;;;;;;4.80;3.50;;;;;;;21.75;69.08;100743.94;5055993;28;20939;-72
2022/06/06 01:41:53;;;;;;;3.90;3.30;;;;;;;21.47;72.33;100751.78;5056234;28;20496;-73
2022/06/06 01:44:28;;;;;;;5.00;4.20;;;;;;;21.07;77.93;100742.88;5055987;28;20429;-72
2022/06/06 01:46:58;;;;;;;10.67;5.40;;;;;;;20.61;85.48;100744.81;5056239;28;20525;-75
2022/06/06 01:49:25;;;;;;;9.93;5.37;;;;;;;20.26;89.96;100722.88;5056332;28;20520;-74
2022/06/06 01:52:00;;;;;;;5.23;4.40;;;;;;;19.99;92.55;100719.19;5055943;28;20588;-75
2022/06/06 01:54:26;;;;;;;8.03;5.03;;;;;;;19.68;95.14;100709.91;5056303;28;20540;-75
2022/06/06 01:56:54;;;;;;;9.20;5.50;;;;;;;19.51;97.30;100704.78;5055956;28;20496;-75
2022/06/06 01:59:22;;;;;;;8.67;5.30;;;;;;;19.44;99.13;100699.16;5055879;28;20489;-74
2022/06/06 02:01:49;;;;;;;7.20;5.70;;;;;;;19.34;100.00;100701.28;5055470;28;20481;-75
2022/06/06 02:04:18;;;;;;;11.47;5.80;;;;;;;19.31;100.00;100691.03;5056094;28;20469;-75
2022/06/06 02:06:44;;;;;;;9.70;5.00;;;;;;;19.29;100.00;100693.31;5055718;28;20855;-75
2022/06/06 02:09:11;;;;;;;7.10;5.57;;;;;;;19.27;100.00;100690.13;5055743;28;20468;-74
2022/06/06 02:11:38;;;;;;;6.23;5.10;;;;;;;19.26;100.00;100690.50;5055201;28;21030;-74
2022/06/06 02:14:05;;;;;;;6.37;5.77;;;;;;;19.22;100.00;100682.19;5055390;28;20533;-76
2022/06/06 02:16:33;;;;;;;10.73;5.60;;;;;;;19.20;100.00;100687.22;5055598;28;20442;-74
2022/06/06 02:19:09;;;;;;;;;;;;;;;;;;;;;
2022/06/06 02:21:36;;;;;;;7.87;5.77;;;;;;;19.16;100.00;100678.09;5055779;28;20434;-74
2022/06/06 02:24:04;;;;;;;6.47;5.47;;;;;;;19.14;100.00;100686.69;5055564;28;20442;-74
2022/06/06 02:26:31;;;;;;;6.93;5.53;;;;;;;19.16;100.00;100683.59;5055139;28;20438;-74
2022/06/06 02:28:58;;;;;;;15.40;5.50;;;;;;;19.16;100.00;100687.13;5055025;28;20823;-74
2022/06/06 02:31:24;;;;;;;6.20;5.20;;;;;;;19.17;100.00;100693.44;5055231;28;20468;-74
2022/06/06 02:33:52;;;;;;;6.03;4.80;;;;;;;19.17;100.00;100693.44;5055227;28;20573;-75
2022/06/06 02:36:19;;;;;;;4.90;4.40;;;;;;;19.13;100.00;100689.81;5055203;28;20489;-74
2022/06/06 02:38:45;;;;;;;7.17;5.13;;;;;;;19.06;100.00;100695.91;5055169;28;20519;-75
2022/06/06 02:41:12;;;;;;;5.57;4.30;;;;;;;19.01;100.00;100690.69;5055001;28;20501;-74
2022/06/06 02:43:42;;;;;;;7.20;5.23;;;;;;;18.95;100.00;100688.56;5055060;28;20440;-74
2022/06/06 02:46:10;;;;;;;6.73;4.97;;;;;;;18.87;100.00;100688.41;5055524;28;20842;-74
2022/06/06 02:48:37;;;;;;;5.60;4.37;;;;;;;18.89;100.00;100702.56;5055015;28;20533;-74
2022/06/06 02:51:06;;;;;;;9.67;5.37;;;;;;;18.93;100.00;100701.88;5054910;28;20473;-74
2022/06/06 02:53:32;;;;;;;5.63;4.80;;;;;;;18.93;100.00;100705.41;5054753;28;20482;-74
2022/06/06 02:56:00;;;;;;;9.80;8.87;;;;;;;18.92;100.00;100705.75;5054874;28;20528;-74
2022/06/06 02:58:27;;;;;;;87.30;79.30;;;;;;;18.92;100.00;100706.56;5054754;28;20533;-74
2022/06/06 03:00:59;;;;;;;5.90;4.20;;;;;;;18.95;100.00;100710.53;5054422;28;20482;-74
2022/06/06 03:03:26;;;;;;;5.97;4.07;;;;;;;18.94;100.00;100714.44;5054783;28;20440;-74
2022/06/06 03:06:01;;;;;;;9.73;4.73;;;;;;;18.92;100.00;100717.53;5054841;28;20463;-73
2022/06/06 03:08:46;;;;;;;9.63;6.67;;;;;;;18.88;100.00;100714.69;5054617;28;20438;-73
2022/06/06 03:11:35;;;;;;;11.10;7.07;;;;;;;18.88;100.00;100719.41;5054459;28;20484;-73
2022/06/06 03:14:17;;;;;;;11.47;7.40;;;;;;;18.88;100.00;100725.69;5054457;28;20466;-74
2022/06/06 03:22:54;;;;;;;9.03;7.07;;;;;;;18.90;100.00;100755.50;5054638;28;20446;-74
2022/06/06 03:25:31;;;;;;;16.90;9.00;;;;;;;18.85;100.00;100770.28;5054292;28;20433;-73
2022/06/06 03:28:09;;;;;;;12.80;7.37;;;;;;;18.74;100.00;100773.94;5054017;28;20465;-73
2022/06/06 03:30:45;;;;;;;13.33;9.00;;;;;;;18.57;100.00;100778.53;5054170;28;20426;-73
2022/06/06 03:33:21;;;;;;;18.93;7.23;;;;;;;18.53;100.00;100779.59;5053916;28;20473;-73
2022/06/06 03:35:56;;;;;;;12.57;8.50;;;;;;;18.46;100.00;100776.66;5053944;28;20875;-72
2022/06/06 03:38:33;;;;;;;12.37;7.00;;;;;;;18.46;100.00;100782.13;5053786;28;20965;-73
2022/06/06 03:41:10;;;;;;;10.30;7.57;;;;;;;18.38;100.00;100783.91;5053939;28;20468;-73
2022/06/06 03:43:46;;;;;;;11.50;8.17;;;;;;;18.38;100.00;100786.63;5053713;28;20423;-73
2022/06/06 03:46:27;;;;;;;12.30;8.70;;;;;;;18.36;100.00;100788.91;5053955;28;20432;-73
2022/06/06 03:49:13;;;;;;;12.77;7.70;;;;;;;18.34;100.00;100794.75;5053895;28;20521;-74
2022/06/06 03:51:52;;;;;;;15.90;9.20;;;;;;;18.34;100.00;100808.47;5053776;28;20480;-74
2022/06/06 03:54:28;;;;;;;15.73;7.60;;;;;;;18.37;100.00;100799.56;5053500;28;20462;-74
2022/06/06 03:57:09;;;;;;;10.20;7.27;;;;;;;18.41;100.00;100796.88;5053406;28;20995;-74
2022/06/06 03:59:38;;;;;;;9.70;7.87;;;;;;;18.40;100.00;100789.81;5053702;28;20426;-74
2022/06/06 04:02:07;;;;;;;11.33;7.33;;;;;;;18.39;100.00;100802.72;5053428;28;20474;-74
2022/06/06 04:04:35;;;;;;;16.03;9.00;;;;;;;18.43;100.00;100807.53;5053553;28;20441;-74
2022/06/06 04:07:04;;;;;;;10.33;7.67;;;;;;;18.43;100.00;100805.59;5054931;28;20500;-74
2022/06/06 04:09:32;;;;;;;11.00;8.00;;;;;;;18.43;100.00;100807.53;5053532;28;20821;-74
2022/06/06 04:12:15;;;;;;;10.73;7.73;;;;;;;18.41;100.00;100808.66;5053353;28;20466;-74
2022/06/06 04:14:50;;;;;;;11.23;8.27;;;;;;;18.44;100.00;100806.38;5053479;28;20509;-74
2022/06/06 04:17:27;;;;;;;12.37;8.97;;;;;;;18.40;100.00;100811.75;5053442;28;20429;-74
2022/06/06 04:20:03;;;;;;;9.77;7.00;;;;;;;18.39;100.00;100816.44;5053401;28;20426;-73
2022/06/06 04:22:40;;;;;;;11.40;7.30;;;;;;;18.39;100.00;100818.41;5053356;28;20494;-73
2022/06/06 04:25:17;;;;;;;13.57;9.00;;;;;;;18.43;100.00;100816.56;5052535;28;20426;-73
2022/06/06 04:27:52;;;;;;;11.17;8.13;;;;;;;18.46;100.00;100810.38;5053353;28;20443;-74
2022/06/06 04:30:27;;;;;;;9.97;7.50;;;;;;;18.51;100.00;100812.88;5053151;28;20436;-74
2022/06/06 04:33:05;;;;;;;9.23;6.57;;;;;;;18.52;100.00;100813.66;5052858;28;20564;-72
2022/06/06 04:35:40;;;;;;;9.10;6.83;;;;;;;18.54;100.00;100817.66;5053151;28;20470;-73
2022/06/06 04:38:12;;;;;;;9.13;6.40;;;;;;;18.53;100.00;100821.53;5052892;28;20473;-73
2022/06/06 04:40:50;;;;;;;9.90;6.67;;;;;;;18.54;100.00;100814.91;5053050;28;20537;-73
2022/06/06 04:43:28;;;;;;;11.77;8.10;;;;;;;18.55;100.00;100822.00;5052796;28;20954;-73
2022/06/06 04:46:04;;;;;;;11.03;7.10;;;;;;;18.57;100.00;100816.16;5052777;28;20513;-73
2022/06/06 04:48:34;;;;;;;11.60;7.70;;;;;;;18.60;100.00;100823.69;5052662;28;20947;-73
2022/06/06 04:51:02;;;;;;;10.50;7.90;;;;;;;18.62;100.00;100822.19;5052838;28;20915;-73
2022/06/06 04:53:31;;;;;;;9.70;7.13;;;;;;;18.63;100.00;100820.25;5052504;28;20488;-73
2022/06/06 04:56:00;;;;;;;11.57;7.97;;;;;;;18.66;100.00;100820.34;5052881;28;20444;-73
2022/06/06 04:58:32;;;;;;;13.00;7.77;;;;;;;18.69;100.00;100829.88;5052961;28;20450;-73
2022/06/06 05:01:01;;;;;;;10.47;6.87;;;;;;;18.68;100.00;100825.47;5052661;28;20466;-73
2022/06/06 05:03:28;;;;;;;9.50;6.23;;;;;;;18.68;100.00;100828.22;5052932;28;20438;-73
2022/06/06 05:06:08;;;;;;;9.73;6.47;;;;;;;18.69;100.00;100829.88;5053131;28;20440;-73
2022/06/06 05:08:51;;;;;;;8.00;6.13;;;;;;;18.70;100.00;100825.97;5052651;28;20861;-73
2022/06/06 05:11:33;;;;;;;9.03;6.27;;;;;;;18.72;100.00;100840.13;5052560;28;20496;-75
2022/06/06 05:14:15;;;;;;;7.67;6.00;;;;;;;18.78;100.00;100844.22;5052773;28;20481;-75
2022/06/06 05:17:05;;;;;;;13.10;6.67;;;;;;;18.81;100.00;100848.19;5052524;28;20517;-75
2022/06/06 05:19:56;;;;;;;9.27;6.30;;;;;;;18.86;100.00;100842.50;5052700;28;20449;-74
2022/06/06 05:22:57;;;;;;;5.67;5.07;;;;;;;18.91;100.00;100855.94;5052828;28;20480;-75
2022/06/06 05:25:42;;;;;;;7.87;5.40;;;;;;;18.95;100.00;100858.78;5042248;28;20457;-75
2022/06/06 05:28:38;;;;;;;8.43;5.97;;;;;;;18.98;100.00;100855.34;5052724;28;20445;-75
2022/06/06 05:31:21;;;;;;;6.27;4.63;;;;;;;18.97;100.00;100868.25;5052566;28;20532;-75
2022/06/06 05:33:56;;;;;;;7.73;5.00;;;;;;;19.01;100.00;100868.38;5052588;28;20473;-75
2022/06/06 05:36:46;;;;;;;8.70;5.07;;;;;;;19.17;100.00;100880.19;5055497;28;20513;-74
2022/06/06 05:39:40;;;;;;;9.30;5.87;;;;;;;19.28;100.00;100874.97;5056409;28;20426;-73
2022/06/06 05:42:21;;;;;;;6.90;5.03;;;;;;;19.38;100.00;100877.97;5056306;28;20888;-74
2022/06/06 05:45:00;;;;;;;9.20;6.07;;;;;;;19.49;100.00;100889.25;5055961;28;20525;-74
2022/06/06 05:47:36;;;;;;;10.33;6.00;;;;;;;19.57;100.00;100891.03;5056236;28;20426;-74
2022/06/06 05:50:14;;;;;;;7.30;4.77;;;;;;;19.70;100.00;100889.03;5055867;28;20981;-74
2022/06/06 05:52:54;;;;;;;9.37;6.20;;;;;;;19.80;100.00;100898.69;5055993;28;20470;-74
2022/06/06 05:55:33;;;;;;;8.63;5.30;;;;;;;19.86;100.00;100897.25;5055829;28;20424;-74
2022/06/06 05:58:22;;;;;;;6.30;4.90;;;;;;;19.88;100.00;100905.94;5056033;28;20426;-74
2022/06/06 06:01:03;;;;;;;5.30;4.53;;;;;;;19.94;100.00;100907.25;5055692;28;20482;-73
2022/06/06 06:03:57;;;;;;;7.53;5.57;;;;;;;20.00;100.00;100913.28;5055902;28;20429;-73
2022/06/06 06:06:33;;;;;;;7.17;5.27;;;;;;;20.04;100.00;100922.41;5055512;28;20803;-74
2022/06/06 06:09:15;;;;;;;7.70;4.47;;;;;;;20.03;100.00;100923.59;5055830;28;20470;-73
2022/06/06 06:11:57;;;;;;;6.27;4.93;;;;;;;20.00;100.00;100924.28;5055669;28;20549;-73
2022/06/06 06:14:36;;;;;;;5.97;4.40;;;;;;;19.94;100.00;100925.72;5055646;28;20553;-74
2022/06/06 06:17:04;;;;;;;6.70;4.73;;;;;;;19.86;100.00;100933.00;5055974;28;20513;-73
2022/06/06 06:19:39;;;;;;;7.50;4.70;;;;;;;19.81;100.00;100933.25;5055567;28;20448;-73
2022/06/06 06:22:07;;;;;;;6.27;4.33;;;;;;;19.70;100.00;100933.00;5055524;28;20500;-73
2022/06/06 06:24:37;;;;;;;6.20;4.60;;;;;;;19.60;100.00;100925.25;5055225;28;20537;-73
2022/06/06 06:27:06;;;;;;;11.17;5.23;;;;;;;19.49;100.00;100940.66;5055167;28;20514;-73
2022/06/06 06:29:33;;;;;;;6.10;4.87;;;;;;;19.44;100.00;100935.44;5055133;28;20438;-73
2022/06/06 06:32:11;;;;;;;7.57;3.83;;;;;;;19.39;100.00;100936.50;5055324;28;20625;-73
2022/06/06 06:34:55;;;;;;;6.93;4.20;;;;;;;19.40;100.00;100938.88;5055253;28;20477;-73
2022/06/06 06:37:39;;;;;;;6.40;3.97;;;;;;;19.49;100.00;100943.41;5055330;28;20426;-73
2022/06/06 06:40:28;;;;;;;4.50;3.90;;;;;;;19.55;100.00;100936.50;5055208;28;20436;-73
2022/06/06 06:43:07;;;;;;;4.40;3.80;;;;;;;19.60;100.00;100948.03;5054946;28;20914;-73
2022/06/06 06:45:37;;;;;;;5.77;4.47;;;;;;;19.64;100.00;100946.19;5055124;28;20509;-73
2022/06/06 06:48:10;;;;;;;5.13;4.03;;;;;;;19.68;100.00;100951.78;5054053;28;20807;-72
2022/06/06 06:50:49;;;;;;;6.10;3.60;;;;;;;19.68;100.00;100943.53;5054998;28;20542;-71
2022/06/06 06:53:31;;;;;;;5.17;3.70;;;;;;;19.73;100.00;100950.72;5054682;28;20459;-72
2022/06/06 06:56:08;;;;;;;6.20;3.80;;;;;;;19.78;100.00;100956.75;5054961;28;20432;-71
2022/06/06 06:58:47;;;;;;;6.80;4.10;;;;;;;19.80;100.00;100951.72;5054888;28;20427;-71
2022/06/06 07:01:19;;;;;;;9.20;4.07;;;;;;;19.73;100.00;100946.03;5054538;28;20484;-71
2022/06/06 07:10:04;;;;;;;6.77;4.20;;;;;;;19.91;95.96;100950.00;5055035;28;20422;-70
2022/06/06 07:12:48;;;;;;;5.87;3.40;;;;;;;19.94;97.22;100942.22;5054402;28;20496;-70
2022/06/06 07:15:29;;;;;;;4.43;2.93;;;;;;;20.00;97.77;100946.28;5054593;28;20477;-71
2022/06/06 07:18:00;;;;;;;6.30;3.93;;;;;;;20.01;95.37;100942.38;5054651;28;20446;-71
2022/06/06 07:20:29;;;;;;;5.50;3.60;;;;;;;20.07;92.16;100946.47;5054496;28;20433;-71
2022/06/06 07:23:02;;;;;;;5.20;3.13;;;;;;;20.16;94.31;100949.81;5054496;28;20441;-72
2022/06/06 07:25:30;;;;;;;6.47;3.50;;;;;;;20.28;94.65;100940.69;5054470;28;20449;-72
2022/06/06 07:27:56;;;;;;;4.60;3.00;;;;;;;20.26;93.76;100938.25;5054403;28;20533;-71
2022/06/06 07:30:24;;;;;;;5.47;3.80;;;;;;;20.27;91.02;100945.34;5054237;28;20527;-72
2022/06/06 07:33:06;;;;;;;4.13;3.30;;;;;;;20.31;88.05;100937.97;5054676;28;20461;-72
2022/06/06 07:35:39;;;;;;;4.90;3.37;;;;;;;20.39;89.50;100939.75;5054384;28;20422;-72
2022/06/06 07:38:25;;;;;;;5.70;3.00;;;;;;;20.49;87.95;100932.09;5054565;28;20447;-73
2022/06/06 07:41:14;;;;;;;3.60;2.90;;;;;;;20.53;88.29;100928.28;5054171;28;20545;-73
2022/06/06 07:43:57;;;;;;;6.13;2.90;;;;;;;20.42;90.66;100919.78;5054291;28;20430;-72
2022/06/06 07:46:38;;;;;;;5.87;2.80;;;;;;;20.59;88.74;100926.06;5054561;28;20423;-76
2022/06/06 07:49:09;;;;;;;4.10;2.60;;;;;;;20.78;87.98;100931.56;5054475;28;20426;-76
2022/06/06 07:51:44;;;;;;;4.13;3.17;;;;;;;20.91;85.08;100930.28;5054213;28;20462;-74
2022/06/06 07:54:36;;;;;;;6.37;2.93;;;;;;;21.06;80.05;100934.09;5054058;28;20476;-72
2022/06/06 07:57:10;;;;;;;4.90;2.97;;;;;;;21.13;82.71;100936.19;5054094;28;20446;-72
2022/06/06 07:59:52;;;;;;;4.67;2.60;;;;;;;21.20;83.21;100930.81;5053990;28;20513;-72
2022/06/06 08:02:45;;;;;;;4.47;3.00;;;;;;;21.41;83.60;100925.72;5053897;28;20474;-74
2022/06/06 08:05:23;;;;;;;2.90;2.10;;;;;;;21.56;80.23;100924.03;5054034;28;20434;-73
2022/06/06 08:08:05;;;;;;;4.23;2.33;;;;;;;21.67;79.36;100935.25;5054369;28;20429;-73
2022/06/06 08:10:41;;;;;;;2.57;1.80;;;;;;;21.85;78.28;100936.34;5053759;28;20422;-75
2022/06/06 08:13:27;;;;;;;4.47;2.70;;;;;;;22.05;76.12;100942.56;5053832;28;20857;-75
2022/06/06 08:16:06;;;;;;;3.90;1.97;;;;;;;22.17;77.42;100936.84;5053408;28;20981;-77
2022/06/06 08:18:47;;;;;;;2.87;2.30;;;;;;;22.14;74.98;100928.56;5053512;28;20434;-74
2022/06/06 08:21:22;;;;;;;4.40;2.37;;;;;;;22.15;72.80;100941.97;5053492;28;20466;-75
2022/06/06 08:23:52;;;;;;;4.40;2.33;;;;;;;22.11;72.96;100943.84;5053771;28;20484;-78
2022/06/06 08:26:21;;;;;;;2.27;1.77;;;;;;;21.91;70.19;100948.66;5054307;28;20450;-75
2022/06/06 08:28:51;;;;;;;2.60;1.77;;;;;;;21.76;74.86;100943.28;5053371;28;20441;-76
2022/06/06 08:31:18;;;;;;;7.50;2.67;;;;;;;21.69;73.06;100941.16;5053619;28;20493;-77
2022/06/06 08:33:45;;;;;;;3.60;2.30;;;;;;;21.74;72.39;100943.66;5053557;28;20580;-76
2022/06/06 08:36:28;;;;;;;3.10;2.43;;;;;;;21.81;69.96;100943.75;5053278;28;20470;-77
2022/06/06 08:39:05;;;;;;;7.47;2.27;;;;;;;21.79;70.66;100935.06;5053157;28;20462;-76
2022/06/06 08:42:03;;;;;;;2.87;1.60;;;;;;;21.83;69.62;100935.91;5053276;28;20469;-76
2022/06/06 08:44:48;;;;;;;4.57;2.17;;;;;;;21.94;69.05;100929.78;5053600;28;20530;-76
2022/06/06 08:47:28;;;;;;;2.50;1.90;;;;;;;21.96;69.05;100927.41;5053503;28;20422;-76
2022/06/06 08:53:44;;;;;;;3.20;1.70;;;;;;;21.92;71.74;100928.19;5053260;28;20497;-76
2022/06/06 08:56:29;;;;;;;2.80;1.83;;;;;;;22.23;68.97;100920.81;5049701;28;20512;-76
2022/06/06 08:59:24;;;;;;;2.20;1.73;;;;;;;22.52;70.09;100921.97;5053414;28;20504;-77
2022/06/06 09:02:14;;;;;;;3.27;2.23;;;;;;;22.86;66.37;100920.06;5053002;28;20496;-76
2022/06/06 09:05:13;;;;;;;3.73;2.37;;;;;;;23.12;66.31;100912.88;5053484;28;20509;-77
2022/06/06 09:08:08;;;;;;;3.67;2.30;;;;;;;23.35;64.71;100929.28;5053371;28;20783;-76
2022/06/06 09:11:18;;;;;;;3.80;1.93;;;;;;;23.34;62.45;100924.94;5052083;28;20454;-77
2022/06/06 09:14:07;;;;;;;6.83;2.73;;;;;;;23.15;61.57;100920.38;5056695;28;20978;-78
2022/06/06 09:17:24;;;;;;;4.03;2.10;;;;;;;23.16;62.64;100916.47;5057022;28;20509;-77
2022/06/06 09:20:34;;;;;;;3.27;1.97;;;;;;;23.20;62.64;100917.31;5022806;28;21021;-76
2022/06/06 09:23:40;;;;;;;1.97;1.67;;;;;;;23.18;62.50;100919.63;4978918;28;20530;-76
2022/06/06 09:26:23;;;;;;;2.30;1.70;;;;;;;23.32;63.63;100921.75;4975744;28;20441;-75
2022/06/06 09:29:27;;;;;;;2.03;1.53;;;;;;;23.37;60.54;100927.75;5056733;28;20476;-77
2022/06/06 09:32:26;;;;;;;2.13;1.60;;;;;;;23.46;61.27;100932.16;5056901;28;20493;-77
2022/06/06 09:35:29;;;;;;;4.10;2.23;;;;;;;23.42;61.66;100935.69;5056596;28;20461;-76
2022/06/06 09:38:13;;;;;;;2.47;1.70;;;;;;;23.35;61.78;100935.63;5056628;28;20462;-76
2022/06/06 09:40:58;;;;;;;2.60;1.77;;;;;;;23.43;59.66;100928.19;5056420;28;20462;-76
2022/06/06 09:43:34;;;;;;;3.13;2.00;;;;;;;23.48;60.12;100927.06;5056646;28;20435;-76
2022/06/06 09:46:36;;;;;;;1.70;1.40;;;;;;;23.58;61.72;100921.63;5056420;28;20459;-75
2022/06/06 09:49:49;;;;;;;3.40;1.93;;;;;;;23.72;60.12;100926.50;4972142;28;20480;-77
2022/06/06 09:52:50;;;;;;;1.90;1.63;;;;;;;23.93;60.59;100925.88;5023880;28;20498;-76
2022/06/06 09:59:25;;;;;;;2.27;1.60;;;;;;;24.39;59.24;100930.94;5056089;28;20945;-76
2022/06/06 10:02:17;;;;;;;2.07;1.77;;;;;;;24.57;59.37;100928.28;5055651;28;21081;-75
2022/06/06 10:05:22;;;;;;;2.47;1.93;;;;;;;24.59;57.81;100931.47;5055731;28;20436;-76
2022/06/06 10:08:16;;;;;;;1.40;1.23;;;;;;;24.66;58.31;100932.31;5055783;28;20879;-75
2022/06/06 10:11:13;;;;;;;2.93;1.73;;;;;;;24.49;57.50;100930.25;5055603;28;20979;-76
2022/06/06 10:14:03;;;;;;;1.90;1.20;;;;;;;24.43;57.35;100931.78;5055955;28;20513;-76
2022/06/06 10:16:50;;;;;;;1.87;1.60;;;;;;;24.45;57.88;100929.44;5055732;28;20419;-76
2022/06/06 10:19:32;;;;;;;2.60;1.43;;;;;;;24.51;57.39;100932.63;5055765;28;20462;-76
2022/06/06 10:22:18;;;;;;;2.80;1.67;;;;;;;24.55;57.73;100937.00;5054260;28;20494;-76
2022/06/06 10:25:01;;;;;;;2.90;2.13;;;;;;;24.41;57.40;100937.72;5055999;28;20419;-75
2022/06/06 10:27:43;;;;;;;1.77;1.67;;;;;;;24.45;58.22;100948.81;5055673;28;20866;-75
2022/06/06 10:30:19;;;;;;;1.83;1.40;;;;;;;24.61;58.19;100954.84;5055733;28;20475;-76
2022/06/06 10:33:12;;;;;;;4.13;1.40;;;;;;;24.60;58.37;100946.91;5055334;28;20933;-76
2022/06/06 10:36:21;;;;;;;1.87;1.63;;;;;;;24.55;56.53;100938.97;5055153;28;20473;-76
2022/06/06 10:39:29;;;;;;;2.27;1.73;;;;;;;24.56;59.09;100937.78;4955257;29;20538;-75
2022/06/06 10:42:11;;;;;;;3.70;1.80;;;;;;;24.52;56.96;100942.50;5055117;28;20461;-77
2022/06/06 10:44:56;;;;;;;3.03;1.77;;;;;;;24.51;58.04;100943.69;5055331;28;20454;-74
2022/06/06 10:47:35;;;;;;;2.60;1.77;;;;;;;24.49;61.59;100941.31;5055034;28;20912;-75
2022/06/06 10:50:11;;;;;;;3.63;1.50;;;;;;;24.75;57.94;100951.34;5055156;28;20987;-76
2022/06/06 10:53:16;;;;;;;2.00;1.80;;;;;;;24.86;56.14;100941.09;5055484;28;20548;-76
2022/06/06 10:56:18;;;;;;;2.57;1.80;;;;;;;25.03;55.22;100942.34;5054260;28;20477;-75
2022/06/06 10:59:27;;;;;;;2.27;1.30;;;;;;;25.02;55.95;100934.44;5055001;28;20457;-75
2022/06/06 11:02:38;;;;;;;4.27;1.90;;;;;;;25.24;56.43;100932.53;5054393;28;20565;-77
2022/06/06 11:05:52;;;;;;;2.90;1.53;;;;;;;25.22;54.34;100929.34;5014514;28;21047;-72
2022/06/06 11:08:39;;;;;;;2.40;1.60;;;;;;;25.33;54.17;100933.75;5035090;28;20446;-73
2022/06/06 11:11:49;;;;;;;1.20;1.10;;;;;;;25.45;53.95;100923.44;5035045;28;20467;-74
2022/06/06 11:14:25;;;;;;;3.17;1.80;;;;;;;25.45;52.76;100929.00;5032273;28;20973;-73
2022/06/06 11:17:25;;;;;;;2.83;1.60;;;;;;;25.56;52.75;100925.03;5034972;28;20430;-72
2022/06/06 11:20:24;;;;;;;2.83;1.33;;;;;;;26.07;52.39;100925.84;5013591;28;20534;-74
2022/06/06 11:22:58;;;;;;;3.33;1.40;;;;;;;26.74;52.00;100930.47;5054527;28;20426;-73
2022/06/06 11:25:26;;;;;;;2.30;1.60;;;;;;;27.18;48.82;100915.16;5054716;28;20500;-74
2022/06/06 11:28:17;;;;;;;2.00;1.47;;;;;;;27.15;51.57;100922.34;5054524;28;20442;-74
2022/06/06 11:31:12;;;;;;;1.27;0.93;;;;;;;26.97;50.30;100926.41;5054455;28;20600;-73
2022/06/06 11:34:30;;;;;;;1.83;1.50;;;;;;;26.76;50.68;100916.16;5054392;28;20486;-73
2022/06/06 11:37:34;;;;;;;2.67;1.50;;;;;;;26.80;51.52;100909.38;5054956;28;20484;-73
2022/06/06 11:40:36;;;;;;;1.97;1.40;;;;;;;27.25;50.31;100914.34;5054612;28;20483;-73
2022/06/06 11:44:09;;;;;;;2.33;1.80;;;;;;;27.89;47.86;100909.09;5054521;28;20931;-73
2022/06/06 11:47:03;;;;;;;1.57;1.30;;;;;;;28.15;46.01;100909.63;5012128;28;20444;-72
2022/06/06 11:49:56;;;;;;;1.67;1.23;;;;;;;28.39;46.24;100914.19;5010820;28;20433;-72
2022/06/06 11:53:02;;;;;;;1.50;1.20;;;;;;;28.93;45.13;100924.66;5026480;28;20535;-73
2022/06/06 11:55:45;;;;;;;2.37;1.40;;;;;;;29.30;45.06;100915.38;5045603;28;20482;-73
2022/06/06 11:58:34;;;;;;;4.47;2.30;;;;;;;29.45;45.69;100920.78;5054099;28;20796;-73
2022/06/06 12:01:32;;;;;;;2.90;1.67;;;;;;;29.24;45.11;100914.28;5052602;28;20493;-74
2022/06/06 12:04:19;;;;;;;2.63;1.70;;;;;;;28.63;44.98;100911.50;5053128;28;20455;-71
2022/06/06 12:07:23;;;;;;;1.27;0.87;;;;;;;28.31;45.31;100917.44;5050143;28;20470;-72
2022/06/06 12:10:00;;;;;;;3.47;1.20;;;;;;;27.71;46.56;100907.63;5043827;28;20438;-76
2022/06/06 12:13:15;;;;;;;5.53;1.70;;;;;;;27.62;48.12;100910.88;5034822;28;20451;-78
2022/06/06 12:16:09;;;;;;;1.87;1.43;;;;;;;27.81;47.01;100904.78;4954496;29;20511;-79
2022/06/06 12:18:50;;;;;;;7.23;1.40;;;;;;;27.87;47.10;100905.91;5056400;28;20525;-79
2022/06/06 12:21:45;;;;;;;2.50;1.53;;;;;;;27.84;45.73;100889.22;5055443;28;20516;-77
2022/06/06 12:24:39;;;;;;;2.00;1.10;;;;;;;27.52;47.03;100901.41;5040343;28;20466;-78
2022/06/06 12:27:23;;;;;;;2.40;1.43;;;;;;;27.55;48.12;100899.81;5046071;28;20529;-78
2022/06/06 12:30:12;;;;;;;2.00;1.33;;;;;;;28.09;46.93;100905.72;5052928;28;20529;-78
2022/06/06 12:32:52;;;;;;;1.50;1.20;;;;;;;28.53;46.85;100901.28;5050849;28;20897;-78
2022/06/06 12:35:27;;;;;;;8.40;1.93;;;;;;;28.53;46.22;100901.28;5036091;28;21000;-79
2022/06/06 12:38:05;;;;;;;1.63;1.30;;;;;;;28.52;45.64;100905.28;5048777;28;20525;-79
2022/06/06 12:40:43;;;;;;;2.80;1.50;;;;;;;28.61;45.63;100897.19;5056121;28;20422;-79
2022/06/06 12:43:22;;;;;;;1.47;1.10;;;;;;;28.56;45.50;100898.47;5055566;28;20438;-80